sensor_id;sensor_type;location;lat;lon;timestamp;P1;durP1;ratioP1;P2;durP2;ratioP2
19163;SDS011;9714;51.208;4.242;2023-07-13T00:00:29;13.93;;;3.03;;
19163;SDS011;9714;51.208;4.242;2023-07-13T00:02:57;15.53;;;2.90;;
19163;SDS011;9714;51.208;4.242;2023-07-13T00:05:24;16.23;;;2.40;;
19163;SDS011;9714;51.208;4.242;2023-07-13T00:07:52;14.73;;;2.60;;
19163;SDS011;9714;51.208;4.242;2023-07-13T00:10:22;14.87;;;2.47;;
19163;SDS011;9714;51.208;4.242;2023-07-13T00:12:49;13.33;;;3.17;;
19163;SDS011;9714;51.208;4.242;2023-07-13T00:15:21;18.03;;;2.67;;
19163;SDS011;9714;51.208;4.242;2023-07-13T00:17:49;15.17;;;2.70;;
19163;SDS011;9714;51.208;4.242;2023-07-13T00:20:17;13.33;;;2.27;;
19163;SDS011;9714;51.208;4.242;2023-07-13T00:22:47;14.97;;;2.70;;
19163;SDS011;9714;51.208;4.242;2023-07-13T00:25:14;12.20;;;2.33;;
19163;SDS011;9714;51.208;4.242;2023-07-13T00:27:43;10.50;;;2.40;;
19163;SDS011;9714;51.208;4.242;2023-07-13T00:30:13;21.67;;;2.97;;
19163;SDS011;9714;51.208;4.242;2023-07-13T00:32:40;15.57;;;2.50;;
19163;SDS011;9714;51.208;4.242;2023-07-13T00:35:08;16.20;;;2.67;;
19163;SDS011;9714;51.208;4.242;2023-07-13T00:37:39;15.07;;;2.97;;
19163;SDS011;9714;51.208;4.242;2023-07-13T00:40:07;16.07;;;3.40;;
19163;SDS011;9714;51.208;4.242;2023-07-13T00:42:36;15.87;;;3.43;;
19163;SDS011;9714;51.208;4.242;2023-07-13T00:48:08;12.90;;;2.70;;
19163;SDS011;9714;51.208;4.242;2023-07-13T00:50:37;15.47;;;2.80;;
19163;SDS011;9714;51.208;4.242;2023-07-13T00:53:04;20.13;;;3.77;;
19163;SDS011;9714;51.208;4.242;2023-07-13T00:55:32;19.07;;;4.17;;
19163;SDS011;9714;51.208;4.242;2023-07-13T00:58:00;20.33;;;3.37;;
19163;SDS011;9714;51.208;4.242;2023-07-13T01:00:29;16.73;;;3.10;;
19163;SDS011;9714;51.208;4.242;2023-07-13T01:02:57;13.37;;;2.73;;
19163;SDS011;9714;51.208;4.242;2023-07-13T01:05:26;19.10;;;3.23;;
19163;SDS011;9714;51.208;4.242;2023-07-13T01:07:54;28.97;;;4.03;;
19163;SDS011;9714;51.208;4.242;2023-07-13T01:10:21;13.50;;;3.00;;
19163;SDS011;9714;51.208;4.242;2023-07-13T01:12:49;22.80;;;3.67;;
19163;SDS011;9714;51.208;4.242;2023-07-13T01:15:36;16.17;;;3.13;;
19163;SDS011;9714;51.208;4.242;2023-07-13T01:18:05;18.17;;;3.10;;
19163;SDS011;9714;51.208;4.242;2023-07-13T01:20:35;18.20;;;3.10;;
19163;SDS011;9714;51.208;4.242;2023-07-13T01:23:05;26.13;;;3.70;;
19163;SDS011;9714;51.208;4.242;2023-07-13T01:25:35;16.03;;;2.93;;
19163;SDS011;9714;51.208;4.242;2023-07-13T01:28:03;17.83;;;3.20;;
19163;SDS011;9714;51.208;4.242;2023-07-13T01:30:34;22.40;;;3.60;;
19163;SDS011;9714;51.208;4.242;2023-07-13T01:33:01;18.67;;;3.83;;
19163;SDS011;9714;51.208;4.242;2023-07-13T01:35:29;21.60;;;3.30;;
19163;SDS011;9714;51.208;4.242;2023-07-13T01:37:57;21.17;;;4.13;;
19163;SDS011;9714;51.208;4.242;2023-07-13T01:40:27;25.63;;;4.10;;
19163;SDS011;9714;51.208;4.242;2023-07-13T01:42:55;16.30;;;3.00;;
19163;SDS011;9714;51.208;4.242;2023-07-13T01:45:22;25.30;;;4.10;;
19163;SDS011;9714;51.208;4.242;2023-07-13T01:47:50;19.17;;;4.07;;
19163;SDS011;9714;51.208;4.242;2023-07-13T01:50:18;26.47;;;4.23;;
19163;SDS011;9714;51.208;4.242;2023-07-13T01:52:45;21.67;;;4.23;;
19163;SDS011;9714;51.208;4.242;2023-07-13T01:55:13;21.47;;;4.17;;
19163;SDS011;9714;51.208;4.242;2023-07-13T01:57:41;21.87;;;4.10;;
19163;SDS011;9714;51.208;4.242;2023-07-13T02:00:10;20.20;;;3.73;;
19163;SDS011;9714;51.208;4.242;2023-07-13T02:02:41;18.80;;;3.93;;
19163;SDS011;9714;51.208;4.242;2023-07-13T02:05:09;21.47;;;4.60;;
19163;SDS011;9714;51.208;4.242;2023-07-13T02:07:36;24.73;;;5.03;;
19163;SDS011;9714;51.208;4.242;2023-07-13T02:10:06;26.97;;;4.63;;
19163;SDS011;9714;51.208;4.242;2023-07-13T02:12:34;18.67;;;3.87;;
19163;SDS011;9714;51.208;4.242;2023-07-13T02:15:04;25.30;;;4.27;;
19163;SDS011;9714;51.208;4.242;2023-07-13T02:17:33;21.97;;;4.30;;
19163;SDS011;9714;51.208;4.242;2023-07-13T02:20:01;20.87;;;4.00;;
19163;SDS011;9714;51.208;4.242;2023-07-13T02:22:28;23.70;;;4.27;;
19163;SDS011;9714;51.208;4.242;2023-07-13T02:24:55;19.77;;;4.70;;
19163;SDS011;9714;51.208;4.242;2023-07-13T02:27:23;25.37;;;4.27;;
19163;SDS011;9714;51.208;4.242;2023-07-13T02:29:50;23.80;;;4.00;;
19163;SDS011;9714;51.208;4.242;2023-07-13T02:32:19;21.10;;;4.33;;
19163;SDS011;9714;51.208;4.242;2023-07-13T02:34:46;18.80;;;4.80;;
19163;SDS011;9714;51.208;4.242;2023-07-13T02:37:13;21.90;;;4.13;;
19163;SDS011;9714;51.208;4.242;2023-07-13T02:39:41;22.40;;;4.17;;
19163;SDS011;9714;51.208;4.242;2023-07-13T02:42:08;29.03;;;4.53;;
19163;SDS011;9714;51.208;4.242;2023-07-13T02:44:35;22.93;;;3.93;;
19163;SDS011;9714;51.208;4.242;2023-07-13T02:47:02;18.47;;;3.97;;
19163;SDS011;9714;51.208;4.242;2023-07-13T02:49:31;21.57;;;4.37;;
19163;SDS011;9714;51.208;4.242;2023-07-13T02:51:58;27.53;;;4.97;;
19163;SDS011;9714;51.208;4.242;2023-07-13T02:54:25;21.80;;;4.77;;
19163;SDS011;9714;51.208;4.242;2023-07-13T02:56:52;22.63;;;4.17;;
19163;SDS011;9714;51.208;4.242;2023-07-13T02:59:19;19.37;;;4.70;;
19163;SDS011;9714;51.208;4.242;2023-07-13T03:01:47;24.90;;;4.77;;
19163;SDS011;9714;51.208;4.242;2023-07-13T03:04:14;27.63;;;5.00;;
19163;SDS011;9714;51.208;4.242;2023-07-13T03:06:46;27.63;;;5.83;;
19163;SDS011;9714;51.208;4.242;2023-07-13T03:09:13;21.43;;;4.70;;
19163;SDS011;9714;51.208;4.242;2023-07-13T03:11:40;20.57;;;4.57;;
19163;SDS011;9714;51.208;4.242;2023-07-13T03:14:08;19.13;;;3.90;;
19163;SDS011;9714;51.208;4.242;2023-07-13T03:16:36;25.03;;;4.50;;
19163;SDS011;9714;51.208;4.242;2023-07-13T03:19:04;24.83;;;4.67;;
19163;SDS011;9714;51.208;4.242;2023-07-13T03:21:32;24.57;;;4.77;;
19163;SDS011;9714;51.208;4.242;2023-07-13T03:24:01;30.53;;;5.53;;
19163;SDS011;9714;51.208;4.242;2023-07-13T03:26:32;20.47;;;4.93;;
19163;SDS011;9714;51.208;4.242;2023-07-13T03:29:00;16.60;;;5.43;;
19163;SDS011;9714;51.208;4.242;2023-07-13T03:31:29;24.00;;;5.57;;
19163;SDS011;9714;51.208;4.242;2023-07-13T03:34:01;33.60;;;6.13;;
19163;SDS011;9714;51.208;4.242;2023-07-13T03:36:30;28.27;;;5.70;;
19163;SDS011;9714;51.208;4.242;2023-07-13T03:39:01;31.10;;;6.30;;
19163;SDS011;9714;51.208;4.242;2023-07-13T03:41:30;22.37;;;4.67;;
19163;SDS011;9714;51.208;4.242;2023-07-13T03:43:58;29.23;;;4.83;;
19163;SDS011;9714;51.208;4.242;2023-07-13T03:46:26;23.60;;;5.13;;
19163;SDS011;9714;51.208;4.242;2023-07-13T03:48:54;25.43;;;5.27;;
19163;SDS011;9714;51.208;4.242;2023-07-13T03:51:22;24.17;;;4.53;;
19163;SDS011;9714;51.208;4.242;2023-07-13T03:53:50;18.03;;;4.73;;
19163;SDS011;9714;51.208;4.242;2023-07-13T03:56:20;27.97;;;4.63;;
19163;SDS011;9714;51.208;4.242;2023-07-13T03:58:49;19.73;;;4.33;;
19163;SDS011;9714;51.208;4.242;2023-07-13T04:01:18;22.23;;;4.60;;
19163;SDS011;9714;51.208;4.242;2023-07-13T04:03:47;19.50;;;5.30;;
19163;SDS011;9714;51.208;4.242;2023-07-13T04:06:15;19.50;;;4.30;;
19163;SDS011;9714;51.208;4.242;2023-07-13T04:08:46;23.30;;;4.67;;
19163;SDS011;9714;51.208;4.242;2023-07-13T04:11:17;30.67;;;4.77;;
19163;SDS011;9714;51.208;4.242;2023-07-13T04:13:49;23.23;;;4.70;;
19163;SDS011;9714;51.208;4.242;2023-07-13T04:16:18;24.47;;;4.90;;
19163;SDS011;9714;51.208;4.242;2023-07-13T04:18:46;27.10;;;5.37;;
19163;SDS011;9714;51.208;4.242;2023-07-13T04:21:15;30.23;;;4.93;;
19163;SDS011;9714;51.208;4.242;2023-07-13T04:23:44;21.53;;;4.83;;
19163;SDS011;9714;51.208;4.242;2023-07-13T04:26:11;23.23;;;5.07;;
19163;SDS011;9714;51.208;4.242;2023-07-13T04:28:38;23.70;;;4.23;;
19163;SDS011;9714;51.208;4.242;2023-07-13T04:31:07;17.93;;;4.43;;
19163;SDS011;9714;51.208;4.242;2023-07-13T04:33:34;18.97;;;4.70;;
19163;SDS011;9714;51.208;4.242;2023-07-13T04:36:02;24.27;;;5.57;;
19163;SDS011;9714;51.208;4.242;2023-07-13T04:38:30;27.97;;;5.33;;
19163;SDS011;9714;51.208;4.242;2023-07-13T04:41:00;24.17;;;4.87;;
19163;SDS011;9714;51.208;4.242;2023-07-13T04:43:30;28.40;;;4.57;;
19163;SDS011;9714;51.208;4.242;2023-07-13T04:46:02;24.27;;;5.07;;
19163;SDS011;9714;51.208;4.242;2023-07-13T04:48:32;20.57;;;4.50;;
19163;SDS011;9714;51.208;4.242;2023-07-13T04:51:00;28.77;;;4.97;;
19163;SDS011;9714;51.208;4.242;2023-07-13T04:53:31;26.97;;;4.67;;
19163;SDS011;9714;51.208;4.242;2023-07-13T04:55:59;25.13;;;5.93;;
19163;SDS011;9714;51.208;4.242;2023-07-13T04:58:27;22.80;;;4.93;;
19163;SDS011;9714;51.208;4.242;2023-07-13T05:00:59;27.33;;;5.33;;
19163;SDS011;9714;51.208;4.242;2023-07-13T05:03:26;20.90;;;5.00;;
19163;SDS011;9714;51.208;4.242;2023-07-13T05:05:58;22.33;;;5.47;;
19163;SDS011;9714;51.208;4.242;2023-07-13T05:08:27;22.30;;;5.53;;
19163;SDS011;9714;51.208;4.242;2023-07-13T05:10:58;21.50;;;4.40;;
19163;SDS011;9714;51.208;4.242;2023-07-13T05:13:26;22.67;;;4.40;;
19163;SDS011;9714;51.208;4.242;2023-07-13T05:15:59;26.07;;;5.07;;
19163;SDS011;9714;51.208;4.242;2023-07-13T05:18:29;18.57;;;4.10;;
19163;SDS011;9714;51.208;4.242;2023-07-13T05:20:59;27.83;;;5.20;;
19163;SDS011;9714;51.208;4.242;2023-07-13T05:23:29;22.83;;;4.90;;
19163;SDS011;9714;51.208;4.242;2023-07-13T05:25:56;23.90;;;4.60;;
19163;SDS011;9714;51.208;4.242;2023-07-13T05:28:24;24.50;;;4.93;;
19163;SDS011;9714;51.208;4.242;2023-07-13T05:30:52;23.07;;;4.57;;
19163;SDS011;9714;51.208;4.242;2023-07-13T05:33:21;30.13;;;5.70;;
19163;SDS011;9714;51.208;4.242;2023-07-13T05:35:49;27.07;;;4.83;;
19163;SDS011;9714;51.208;4.242;2023-07-13T05:38:21;23.00;;;4.33;;
19163;SDS011;9714;51.208;4.242;2023-07-13T05:40:49;21.30;;;4.57;;
19163;SDS011;9714;51.208;4.242;2023-07-13T05:43:18;21.23;;;4.90;;
19163;SDS011;9714;51.208;4.242;2023-07-13T05:45:46;24.23;;;4.17;;
19163;SDS011;9714;51.208;4.242;2023-07-13T05:48:16;19.53;;;4.83;;
19163;SDS011;9714;51.208;4.242;2023-07-13T05:50:44;23.63;;;4.93;;
19163;SDS011;9714;51.208;4.242;2023-07-13T05:53:12;20.20;;;4.83;;
19163;SDS011;9714;51.208;4.242;2023-07-13T05:55:42;27.13;;;5.07;;
19163;SDS011;9714;51.208;4.242;2023-07-13T05:58:13;25.63;;;4.80;;
19163;SDS011;9714;51.208;4.242;2023-07-13T06:00:40;23.50;;;4.73;;
19163;SDS011;9714;51.208;4.242;2023-07-13T06:03:08;22.17;;;4.90;;
19163;SDS011;9714;51.208;4.242;2023-07-13T06:05:36;25.07;;;4.60;;
19163;SDS011;9714;51.208;4.242;2023-07-13T06:08:05;24.90;;;4.93;;
19163;SDS011;9714;51.208;4.242;2023-07-13T06:10:33;23.47;;;4.10;;
19163;SDS011;9714;51.208;4.242;2023-07-13T06:13:02;19.97;;;4.17;;
19163;SDS011;9714;51.208;4.242;2023-07-13T06:15:29;18.90;;;4.47;;
19163;SDS011;9714;51.208;4.242;2023-07-13T06:17:58;22.10;;;4.70;;
19163;SDS011;9714;51.208;4.242;2023-07-13T06:20:25;17.70;;;3.93;;
19163;SDS011;9714;51.208;4.242;2023-07-13T06:22:54;17.43;;;3.93;;
19163;SDS011;9714;51.208;4.242;2023-07-13T06:25:21;22.47;;;4.63;;
19163;SDS011;9714;51.208;4.242;2023-07-13T06:28:19;24.23;;;4.50;;
19163;SDS011;9714;51.208;4.242;2023-07-13T06:30:39;19.13;;;3.87;;
19163;SDS011;9714;51.208;4.242;2023-07-13T06:33:07;18.93;;;4.10;;
19163;SDS011;9714;51.208;4.242;2023-07-13T06:35:35;23.40;;;4.20;;
19163;SDS011;9714;51.208;4.242;2023-07-13T06:38:04;13.90;;;4.17;;
19163;SDS011;9714;51.208;4.242;2023-07-13T06:40:32;23.10;;;4.47;;
19163;SDS011;9714;51.208;4.242;2023-07-13T06:42:59;19.03;;;4.17;;
19163;SDS011;9714;51.208;4.242;2023-07-13T06:45:29;21.30;;;4.47;;
19163;SDS011;9714;51.208;4.242;2023-07-13T06:47:56;27.07;;;4.57;;
19163;SDS011;9714;51.208;4.242;2023-07-13T06:50:24;30.90;;;5.73;;
19163;SDS011;9714;51.208;4.242;2023-07-13T06:52:51;21.27;;;4.30;;
19163;SDS011;9714;51.208;4.242;2023-07-13T06:55:19;20.03;;;4.13;;
19163;SDS011;9714;51.208;4.242;2023-07-13T06:57:47;23.10;;;4.77;;
19163;SDS011;9714;51.208;4.242;2023-07-13T07:00:14;22.63;;;4.73;;
19163;SDS011;9714;51.208;4.242;2023-07-13T07:02:43;23.45;;;4.50;;
19163;SDS011;9714;51.208;4.242;2023-07-13T07:05:11;21.85;;;5.43;;
19163;SDS011;9714;51.208;4.242;2023-07-13T07:07:40;24.17;;;4.97;;
19163;SDS011;9714;51.208;4.242;2023-07-13T07:10:09;21.95;;;4.25;;
19163;SDS011;9714;51.208;4.242;2023-07-13T07:12:36;16.95;;;4.10;;
19163;SDS011;9714;51.208;4.242;2023-07-13T07:15:04;23.35;;;5.00;;
19163;SDS011;9714;51.208;4.242;2023-07-13T07:17:33;20.80;;;4.37;;
19163;SDS011;9714;51.208;4.242;2023-07-13T07:20:03;19.23;;;4.57;;
19163;SDS011;9714;51.208;4.242;2023-07-13T07:22:31;20.60;;;4.95;;
19163;SDS011;9714;51.208;4.242;2023-07-13T07:24:59;16.30;;;4.43;;
19163;SDS011;9714;51.208;4.242;2023-07-13T07:27:26;23.37;;;4.87;;
19163;SDS011;9714;51.208;4.242;2023-07-13T07:29:53;23.63;;;4.53;;
19163;SDS011;9714;51.208;4.242;2023-07-13T07:32:23;23.48;;;4.90;;
19163;SDS011;9714;51.208;4.242;2023-07-13T07:34:51;32.65;;;5.30;;
19163;SDS011;9714;51.208;4.242;2023-07-13T07:37:19;21.42;;;4.80;;
19163;SDS011;9714;51.208;4.242;2023-07-13T07:39:47;19.90;;;4.30;;
19163;SDS011;9714;51.208;4.242;2023-07-13T07:42:14;16.60;;;4.43;;
19163;SDS011;9714;51.208;4.242;2023-07-13T07:44:45;21.15;;;3.90;;
19163;SDS011;9714;51.208;4.242;2023-07-13T07:47:12;21.45;;;4.65;;
19163;SDS011;9714;51.208;4.242;2023-07-13T07:49:40;23.45;;;4.50;;
19163;SDS011;9714;51.208;4.242;2023-07-13T07:52:07;23.10;;;4.07;;
19163;SDS011;9714;51.208;4.242;2023-07-13T07:54:36;24.50;;;4.10;;
19163;SDS011;9714;51.208;4.242;2023-07-13T07:57:06;19.83;;;4.22;;
19163;SDS011;9714;51.208;4.242;2023-07-13T07:59:35;15.50;;;4.03;;
19163;SDS011;9714;51.208;4.242;2023-07-13T08:02:03;17.10;;;3.95;;
19163;SDS011;9714;51.208;4.242;2023-07-13T08:04:31;19.42;;;3.70;;
19163;SDS011;9714;51.208;4.242;2023-07-13T08:06:58;17.10;;;3.60;;
19163;SDS011;9714;51.208;4.242;2023-07-13T08:09:27;15.85;;;4.00;;
19163;SDS011;9714;51.208;4.242;2023-07-13T08:11:56;17.35;;;4.15;;
19163;SDS011;9714;51.208;4.242;2023-07-13T08:14:23;16.00;;;4.05;;
19163;SDS011;9714;51.208;4.242;2023-07-13T08:16:50;24.25;;;4.68;;
19163;SDS011;9714;51.208;4.242;2023-07-13T08:19:20;16.75;;;4.03;;
19163;SDS011;9714;51.208;4.242;2023-07-13T08:21:47;21.95;;;4.47;;
19163;SDS011;9714;51.208;4.242;2023-07-13T08:24:15;18.30;;;3.95;;
19163;SDS011;9714;51.208;4.242;2023-07-13T08:26:46;21.58;;;4.50;;
19163;SDS011;9714;51.208;4.242;2023-07-13T08:29:17;15.85;;;4.20;;
19163;SDS011;9714;51.208;4.242;2023-07-13T08:34:15;22.75;;;4.78;;
19163;SDS011;9714;51.208;4.242;2023-07-13T08:36:45;23.77;;;3.90;;
19163;SDS011;9714;51.208;4.242;2023-07-13T08:39:12;15.25;;;3.97;;
19163;SDS011;9714;51.208;4.242;2023-07-13T08:41:46;21.48;;;4.45;;
19163;SDS011;9714;51.208;4.242;2023-07-13T08:44:26;12.43;;;3.50;;
19163;SDS011;9714;51.208;4.242;2023-07-13T08:47:03;16.98;;;3.58;;
19163;SDS011;9714;51.208;4.242;2023-07-13T08:49:31;13.13;;;3.30;;
19163;SDS011;9714;51.208;4.242;2023-07-13T08:52:01;14.38;;;3.15;;
19163;SDS011;9714;51.208;4.242;2023-07-13T08:54:34;17.65;;;4.00;;
19163;SDS011;9714;51.208;4.242;2023-07-13T08:57:13;17.90;;;3.40;;
19163;SDS011;9714;51.208;4.242;2023-07-13T08:59:49;18.13;;;4.30;;
19163;SDS011;9714;51.208;4.242;2023-07-13T09:02:26;14.10;;;3.10;;
19163;SDS011;9714;51.208;4.242;2023-07-13T09:04:59;14.75;;;3.03;;
19163;SDS011;9714;51.208;4.242;2023-07-13T09:07:39;14.27;;;2.85;;
19163;SDS011;9714;51.208;4.242;2023-07-13T09:10:19;17.40;;;3.05;;
19163;SDS011;9714;51.208;4.242;2023-07-13T09:12:57;15.25;;;2.85;;
19163;SDS011;9714;51.208;4.242;2023-07-13T09:15:34;15.73;;;2.85;;
19163;SDS011;9714;51.208;4.242;2023-07-13T09:18:11;10.93;;;2.38;;
19163;SDS011;9714;51.208;4.242;2023-07-13T09:20:48;12.32;;;2.42;;
19163;SDS011;9714;51.208;4.242;2023-07-13T09:31:28;10.38;;;2.70;;
19163;SDS011;9714;51.208;4.242;2023-07-13T09:34:03;10.35;;;2.55;;
19163;SDS011;9714;51.208;4.242;2023-07-13T09:36:35;7.75;;;2.00;;
19163;SDS011;9714;51.208;4.242;2023-07-13T09:39:04;12.63;;;2.17;;
19163;SDS011;9714;51.208;4.242;2023-07-13T09:41:44;9.25;;;2.65;;
19163;SDS011;9714;51.208;4.242;2023-07-13T09:44:15;10.50;;;2.83;;
19163;SDS011;9714;51.208;4.242;2023-07-13T09:46:53;13.55;;;2.97;;
19163;SDS011;9714;51.208;4.242;2023-07-13T09:49:23;13.75;;;2.80;;
19163;SDS011;9714;51.208;4.242;2023-07-13T09:51:56;9.90;;;2.40;;
19163;SDS011;9714;51.208;4.242;2023-07-13T09:54:27;13.10;;;2.50;;
19163;SDS011;9714;51.208;4.242;2023-07-13T09:57:01;11.23;;;2.53;;
19163;SDS011;9714;51.208;4.242;2023-07-13T09:59:33;9.95;;;2.67;;
19163;SDS011;9714;51.208;4.242;2023-07-13T10:02:08;11.18;;;2.63;;
19163;SDS011;9714;51.208;4.242;2023-07-13T10:04:55;14.25;;;2.45;;
19163;SDS011;9714;51.208;4.242;2023-07-13T10:07:24;16.20;;;3.38;;
19163;SDS011;9714;51.208;4.242;2023-07-13T10:09:53;10.95;;;2.83;;
19163;SDS011;9714;51.208;4.242;2023-07-13T10:12:22;13.50;;;1.95;;
19163;SDS011;9714;51.208;4.242;2023-07-13T10:14:50;7.68;;;1.80;;
19163;SDS011;9714;51.208;4.242;2023-07-13T10:19:59;10.23;;;2.35;;
19163;SDS011;9714;51.208;4.242;2023-07-13T10:22:33;7.35;;;1.90;;
19163;SDS011;9714;51.208;4.242;2023-07-13T10:25:15;10.50;;;1.80;;
19163;SDS011;9714;51.208;4.242;2023-07-13T10:27:46;10.82;;;2.28;;
19163;SDS011;9714;51.208;4.242;2023-07-13T10:30:17;9.75;;;2.33;;
19163;SDS011;9714;51.208;4.242;2023-07-13T10:32:50;9.10;;;1.75;;
19163;SDS011;9714;51.208;4.242;2023-07-13T10:35:20;10.90;;;2.53;;
19163;SDS011;9714;51.208;4.242;2023-07-13T10:37:52;8.90;;;2.05;;
19163;SDS011;9714;51.208;4.242;2023-07-13T10:40:28;10.10;;;1.85;;
19163;SDS011;9714;51.208;4.242;2023-07-13T10:43:13;7.32;;;2.10;;
19163;SDS011;9714;51.208;4.242;2023-07-13T10:45:46;8.13;;;1.67;;
19163;SDS011;9714;51.208;4.242;2023-07-13T10:51:16;8.98;;;2.00;;
19163;SDS011;9714;51.208;4.242;2023-07-13T10:53:47;13.57;;;2.25;;
19163;SDS011;9714;51.208;4.242;2023-07-13T10:56:39;9.07;;;2.05;;
19163;SDS011;9714;51.208;4.242;2023-07-13T10:59:20;11.63;;;2.60;;
19163;SDS011;9714;51.208;4.242;2023-07-13T11:02:13;9.13;;;2.30;;
19163;SDS011;9714;51.208;4.242;2023-07-13T11:04:56;10.70;;;2.13;;
19163;SDS011;9714;51.208;4.242;2023-07-13T11:07:26;14.93;;;2.92;;
19163;SDS011;9714;51.208;4.242;2023-07-13T11:09:55;11.95;;;3.33;;
19163;SDS011;9714;51.208;4.242;2023-07-13T11:12:48;15.50;;;3.70;;
19163;SDS011;9714;51.208;4.242;2023-07-13T11:15:32;10.68;;;3.70;;
19163;SDS011;9714;51.208;4.242;2023-07-13T11:18:20;19.42;;;4.45;;
19163;SDS011;9714;51.208;4.242;2023-07-13T11:20:54;13.68;;;4.30;;
19163;SDS011;9714;51.208;4.242;2023-07-13T11:23:51;13.75;;;3.72;;
19163;SDS011;9714;51.208;4.242;2023-07-13T11:29:25;10.63;;;3.20;;
19163;SDS011;9714;51.208;4.242;2023-07-13T11:32:02;17.00;;;3.97;;
19163;SDS011;9714;51.208;4.242;2023-07-13T11:34:54;9.95;;;2.45;;
19163;SDS011;9714;51.208;4.242;2023-07-13T11:37:26;8.38;;;2.60;;
19163;SDS011;9714;51.208;4.242;2023-07-13T11:42:58;9.68;;;3.00;;
19163;SDS011;9714;51.208;4.242;2023-07-13T11:45:26;14.05;;;3.33;;
19163;SDS011;9714;51.208;4.242;2023-07-13T11:47:57;12.00;;;3.70;;
19163;SDS011;9714;51.208;4.242;2023-07-13T11:50:25;10.75;;;3.10;;
19163;SDS011;9714;51.208;4.242;2023-07-13T11:52:55;18.38;;;3.75;;
19163;SDS011;9714;51.208;4.242;2023-07-13T11:55:25;10.75;;;3.33;;
19163;SDS011;9714;51.208;4.242;2023-07-13T11:57:54;12.75;;;3.70;;
19163;SDS011;9714;51.208;4.242;2023-07-13T12:00:26;11.30;;;3.60;;
19163;SDS011;9714;51.208;4.242;2023-07-13T12:02:55;9.82;;;3.53;;
19163;SDS011;9714;51.208;4.242;2023-07-13T12:05:27;11.90;;;3.58;;
19163;SDS011;9714;51.208;4.242;2023-07-13T12:07:58;14.73;;;4.22;;
19163;SDS011;9714;51.208;4.242;2023-07-13T12:10:36;12.48;;;3.22;;
19163;SDS011;9714;51.208;4.242;2023-07-13T12:13:04;11.45;;;2.95;;
19163;SDS011;9714;51.208;4.242;2023-07-13T12:15:35;12.07;;;2.83;;
19163;SDS011;9714;51.208;4.242;2023-07-13T12:18:12;12.90;;;3.55;;
19163;SDS011;9714;51.208;4.242;2023-07-13T12:20:41;11.30;;;2.67;;
19163;SDS011;9714;51.208;4.242;2023-07-13T12:23:14;9.23;;;1.95;;
19163;SDS011;9714;51.208;4.242;2023-07-13T12:25:49;8.80;;;2.60;;
19163;SDS011;9714;51.208;4.242;2023-07-13T12:28:21;8.90;;;2.10;;
19163;SDS011;9714;51.208;4.242;2023-07-13T12:30:57;5.57;;;2.05;;
19163;SDS011;9714;51.208;4.242;2023-07-13T12:33:27;9.18;;;2.17;;
19163;SDS011;9714;51.208;4.242;2023-07-13T12:35:55;9.40;;;1.92;;
19163;SDS011;9714;51.208;4.242;2023-07-13T12:38:25;8.30;;;1.90;;
19163;SDS011;9714;51.208;4.242;2023-07-13T12:40:52;12.40;;;2.47;;
19163;SDS011;9714;51.208;4.242;2023-07-13T12:43:20;8.98;;;2.47;;
19163;SDS011;9714;51.208;4.242;2023-07-13T12:45:57;6.63;;;1.88;;
19163;SDS011;9714;51.208;4.242;2023-07-13T12:48:26;9.35;;;1.77;;
19163;SDS011;9714;51.208;4.242;2023-07-13T12:50:54;11.88;;;2.53;;
19163;SDS011;9714;51.208;4.242;2023-07-13T12:53:23;9.60;;;1.98;;
19163;SDS011;9714;51.208;4.242;2023-07-13T12:55:58;10.43;;;2.20;;
19163;SDS011;9714;51.208;4.242;2023-07-13T12:58:28;6.95;;;2.22;;
19163;SDS011;9714;51.208;4.242;2023-07-13T13:00:58;11.43;;;2.65;;
19163;SDS011;9714;51.208;4.242;2023-07-13T13:03:29;9.48;;;2.08;;
19163;SDS011;9714;51.208;4.242;2023-07-13T13:05:59;7.90;;;2.50;;
19163;SDS011;9714;51.208;4.242;2023-07-13T13:08:28;11.45;;;2.80;;
19163;SDS011;9714;51.208;4.242;2023-07-13T13:10:57;9.52;;;2.63;;
19163;SDS011;9714;51.208;4.242;2023-07-13T13:13:24;11.68;;;3.10;;
19163;SDS011;9714;51.208;4.242;2023-07-13T13:15:52;15.50;;;3.13;;
19163;SDS011;9714;51.208;4.242;2023-07-13T13:18:19;11.88;;;2.92;;
19163;SDS011;9714;51.208;4.242;2023-07-13T13:20:48;12.57;;;3.15;;
19163;SDS011;9714;51.208;4.242;2023-07-13T13:23:18;13.18;;;3.17;;
19163;SDS011;9714;51.208;4.242;2023-07-13T13:25:49;8.55;;;2.65;;
19163;SDS011;9714;51.208;4.242;2023-07-13T13:28:19;10.23;;;2.92;;
19163;SDS011;9714;51.208;4.242;2023-07-13T13:30:49;8.70;;;2.70;;
19163;SDS011;9714;51.208;4.242;2023-07-13T13:33:19;11.52;;;3.35;;
19163;SDS011;9714;51.208;4.242;2023-07-13T13:35:48;11.43;;;3.20;;
19163;SDS011;9714;51.208;4.242;2023-07-13T13:38:16;9.48;;;2.70;;
19163;SDS011;9714;51.208;4.242;2023-07-13T13:40:46;10.05;;;3.03;;
19163;SDS011;9714;51.208;4.242;2023-07-13T13:43:14;11.70;;;3.13;;
19163;SDS011;9714;51.208;4.242;2023-07-13T13:45:44;9.45;;;2.78;;
19163;SDS011;9714;51.208;4.242;2023-07-13T13:48:16;10.93;;;2.80;;
19163;SDS011;9714;51.208;4.242;2023-07-13T13:50:46;11.57;;;2.67;;
19163;SDS011;9714;51.208;4.242;2023-07-13T13:53:14;8.57;;;2.80;;
19163;SDS011;9714;51.208;4.242;2023-07-13T13:55:41;11.77;;;2.97;;
19163;SDS011;9714;51.208;4.242;2023-07-13T13:58:09;8.82;;;2.42;;
19163;SDS011;9714;51.208;4.242;2023-07-13T14:00:36;12.40;;;3.22;;
19163;SDS011;9714;51.208;4.242;2023-07-13T14:03:05;9.10;;;2.92;;
19163;SDS011;9714;51.208;4.242;2023-07-13T14:05:40;11.10;;;2.90;;
19163;SDS011;9714;51.208;4.242;2023-07-13T14:08:08;7.22;;;2.20;;
19163;SDS011;9714;51.208;4.242;2023-07-13T14:10:39;8.30;;;2.53;;
19163;SDS011;9714;51.208;4.242;2023-07-13T14:13:07;9.80;;;2.65;;
19163;SDS011;9714;51.208;4.242;2023-07-13T14:15:43;7.40;;;2.15;;
19163;SDS011;9714;51.208;4.242;2023-07-13T14:18:12;10.65;;;2.40;;
19163;SDS011;9714;51.208;4.242;2023-07-13T14:20:43;7.00;;;2.35;;
19163;SDS011;9714;51.208;4.242;2023-07-13T14:23:12;13.02;;;2.80;;
19163;SDS011;9714;51.208;4.242;2023-07-13T14:25:39;9.98;;;2.55;;
19163;SDS011;9714;51.208;4.242;2023-07-13T14:28:12;11.93;;;2.90;;
19163;SDS011;9714;51.208;4.242;2023-07-13T14:30:48;8.63;;;2.53;;
19163;SDS011;9714;51.208;4.242;2023-07-13T14:33:17;10.98;;;2.70;;
19163;SDS011;9714;51.208;4.242;2023-07-13T14:35:45;10.85;;;2.45;;
19163;SDS011;9714;51.208;4.242;2023-07-13T14:38:13;11.02;;;2.40;;
19163;SDS011;9714;51.208;4.242;2023-07-13T14:40:42;12.90;;;2.35;;
19163;SDS011;9714;51.208;4.242;2023-07-13T14:43:10;11.93;;;2.30;;
19163;SDS011;9714;51.208;4.242;2023-07-13T14:45:39;12.70;;;2.55;;
19163;SDS011;9714;51.208;4.242;2023-07-13T14:48:14;9.70;;;2.53;;
19163;SDS011;9714;51.208;4.242;2023-07-13T14:50:45;12.77;;;2.70;;
19163;SDS011;9714;51.208;4.242;2023-07-13T14:53:17;7.55;;;2.10;;
19163;SDS011;9714;51.208;4.242;2023-07-13T14:55:44;9.13;;;2.42;;
19163;SDS011;9714;51.208;4.242;2023-07-13T14:58:11;11.32;;;2.85;;
19163;SDS011;9714;51.208;4.242;2023-07-13T15:00:39;10.02;;;2.22;;
19163;SDS011;9714;51.208;4.242;2023-07-13T15:03:08;12.25;;;2.58;;
19163;SDS011;9714;51.208;4.242;2023-07-13T15:05:48;12.40;;;2.75;;
19163;SDS011;9714;51.208;4.242;2023-07-13T15:08:15;9.45;;;2.42;;
19163;SDS011;9714;51.208;4.242;2023-07-13T15:10:43;9.20;;;3.03;;
19163;SDS011;9714;51.208;4.242;2023-07-13T15:13:14;9.80;;;2.83;;
19163;SDS011;9714;51.208;4.242;2023-07-13T15:15:47;11.35;;;2.70;;
19163;SDS011;9714;51.208;4.242;2023-07-13T15:18:16;10.73;;;2.40;;
19163;SDS011;9714;51.208;4.242;2023-07-13T15:20:46;8.45;;;3.03;;
19163;SDS011;9714;51.208;4.242;2023-07-13T15:23:16;10.75;;;2.78;;
19163;SDS011;9714;51.208;4.242;2023-07-13T15:25:44;8.57;;;2.80;;
19163;SDS011;9714;51.208;4.242;2023-07-13T15:28:12;11.35;;;2.70;;
19163;SDS011;9714;51.208;4.242;2023-07-13T15:30:40;10.23;;;2.60;;
19163;SDS011;9714;51.208;4.242;2023-07-13T15:33:10;9.55;;;3.17;;